createdAt,value
2022-09-07T00:01:04.197Z,3.90
2022-09-07T00:03:31.290Z,3.53
2022-09-07T00:05:58.267Z,3.73
2022-09-07T00:08:27.344Z,3.53
2022-09-07T00:11:02.083Z,3.80
2022-09-07T00:13:34.044Z,3.70
2022-09-07T00:16:18.232Z,3.60
2022-09-07T00:18:46.463Z,3.80
2022-09-07T00:21:16.769Z,3.33
2022-09-07T00:23:44.350Z,3.33
2022-09-07T00:26:15.843Z,4.07
2022-09-07T00:28:43.909Z,3.73
2022-09-07T00:31:14.671Z,4.00
2022-09-07T00:33:42.229Z,3.63
2022-09-07T00:36:09.165Z,3.63
2022-09-07T00:38:36.921Z,3.83
2022-09-07T00:41:04.267Z,3.97
2022-09-07T00:43:42.876Z,3.97
2022-09-07T00:46:20.087Z,3.67
2022-09-07T00:49:12.055Z,3.53
2022-09-07T00:51:57.845Z,4.03
2022-09-07T00:54:36.113Z,3.77
2022-09-07T00:57:04.241Z,4.13
2022-09-07T00:59:43.721Z,3.57
2022-09-07T01:02:12.709Z,3.63
2022-09-07T01:04:40.680Z,3.50
2022-09-07T01:07:08.791Z,3.60
2022-09-07T01:09:36.483Z,3.60
2022-09-07T01:12:04.586Z,3.90
2022-09-07T01:14:39.879Z,4.13
2022-09-07T01:17:12.422Z,4.00
2022-09-07T01:20:21.445Z,4.00
2022-09-07T01:23:25.002Z,3.50
2022-09-07T01:26:16.667Z,3.33
2022-09-07T01:28:47.234Z,3.33
2022-09-07T01:31:49.513Z,3.57
2022-09-07T01:34:26.102Z,3.33
2022-09-07T01:37:32.682Z,3.83
2022-09-07T01:40:22.912Z,3.43
2022-09-07T01:43:01.163Z,3.80
2022-09-07T01:45:34.788Z,3.63
2022-09-07T01:48:07.328Z,3.60
2022-09-07T01:50:57.828Z,4.00
2022-09-07T01:53:39.911Z,4.10
2022-09-07T01:56:15.530Z,3.80
2022-09-07T01:59:01.622Z,3.77
2022-09-07T02:01:47.071Z,3.93
2022-09-07T02:04:24.622Z,3.83
2022-09-07T02:07:05.475Z,3.60
2022-09-07T02:09:59.287Z,3.57
2022-09-07T02:12:44.326Z,4.23
2022-09-07T02:15:28.151Z,4.07
2022-09-07T02:18:04.376Z,3.70
2022-09-07T02:20:37.594Z,3.57
2022-09-07T02:23:20.121Z,3.70
2022-09-07T02:25:55.814Z,4.03
2022-09-07T02:28:29.192Z,3.53
2022-09-07T02:30:56.309Z,3.70
2022-09-07T02:33:23.331Z,3.67
2022-09-07T02:35:51.198Z,3.43
2022-09-07T02:38:19.103Z,3.53
2022-09-07T02:41:00.264Z,3.57
2022-09-07T02:43:29.445Z,4.10
2022-09-07T02:46:22.411Z,4.10
2022-09-07T02:49:26.437Z,3.70
2022-09-07T02:52:18.180Z,4.40
2022-09-07T02:55:15.888Z,3.80
2022-09-07T02:57:45.419Z,3.63
2022-09-07T03:00:20.818Z,4.10
2022-09-07T03:03:23.825Z,4.10
2022-09-07T03:06:38.252Z,4.00
2022-09-07T03:09:15.047Z,3.53
2022-09-07T03:11:42.110Z,4.30
2022-09-07T03:14:20.345Z,3.60
2022-09-07T03:16:50.798Z,3.83
2022-09-07T03:19:18.614Z,4.33
2022-09-07T03:21:45.606Z,3.57
2022-09-07T03:24:12.772Z,4.07
2022-09-07T03:26:45.108Z,4.10
2022-09-07T03:29:12.607Z,3.67
2022-09-07T03:31:39.387Z,3.97
2022-09-07T03:34:07.192Z,3.80
2022-09-07T03:36:34.577Z,3.63
2022-09-07T03:39:01.426Z,3.60
2022-09-07T03:41:29.117Z,3.63
2022-09-07T03:43:56.259Z,3.43
2022-09-07T03:46:23.136Z,4.10
2022-09-07T03:48:50.426Z,3.70
2022-09-07T03:51:18.970Z,3.53
2022-09-07T03:53:47.300Z,3.80
2022-09-07T03:56:21.893Z,3.60
2022-09-07T03:58:50.115Z,3.87
2022-09-07T04:01:21.231Z,3.80
2022-09-07T04:03:48.585Z,3.60
2022-09-07T04:06:16.861Z,4.27
2022-09-07T04:08:44.861Z,3.60
2022-09-07T04:11:18.294Z,4.10
2022-09-07T04:13:46.025Z,4.30
2022-09-07T04:16:22.109Z,4.10
2022-09-07T04:18:50.293Z,3.67
2022-09-07T04:21:18.377Z,4.43
2022-09-07T04:23:45.437Z,4.17
2022-09-07T04:26:18.326Z,4.03
2022-09-07T04:28:45.993Z,4.50
2022-09-07T04:31:15.880Z,4.00
2022-09-07T04:33:44.876Z,3.87
2022-09-07T04:36:12.892Z,3.70
2022-09-07T04:38:40.030Z,3.70
2022-09-07T04:41:18.668Z,3.87
2022-09-07T04:43:46.900Z,4.20
2022-09-07T04:46:21.958Z,3.90
2022-09-07T04:48:51.124Z,4.00
2022-09-07T04:51:19.217Z,4.20
2022-09-07T04:53:50.090Z,3.80
2022-09-07T04:56:18.759Z,4.10
2022-09-07T04:58:46.753Z,3.93
2022-09-07T05:01:17.753Z,4.20
2022-09-07T05:03:46.130Z,4.10
2022-09-07T05:06:14.889Z,4.17
2022-09-07T05:08:45.710Z,4.20
2022-09-07T05:11:14.627Z,3.90
2022-09-07T05:13:41.586Z,4.17
2022-09-07T05:16:21.369Z,4.37
2022-09-07T05:18:55.255Z,4.40
2022-09-07T05:21:25.983Z,3.93
2022-09-07T05:23:56.125Z,4.60
2022-09-07T05:26:30.217Z,4.40
2022-09-07T05:31:45.905Z,4.47
2022-09-07T05:36:55.620Z,5.03
2022-09-07T05:39:22.454Z,4.70
2022-09-07T05:41:49.619Z,4.10
2022-09-07T05:47:04.128Z,4.87
2022-09-07T05:49:32.337Z,5.13
2022-09-07T05:51:59.144Z,4.10
2022-09-07T05:54:26.113Z,4.50
2022-09-07T05:56:52.893Z,3.77
2022-09-07T05:59:19.730Z,4.37
2022-09-07T06:01:46.566Z,4.67
2022-09-07T06:04:13.384Z,5.63
2022-09-07T06:06:40.210Z,4.90
2022-09-07T06:09:07.919Z,4.43
2022-09-07T06:11:36.531Z,4.83
2022-09-07T06:14:03.303Z,4.60
2022-09-07T06:16:33.744Z,4.20
2022-09-07T06:19:06.670Z,3.90
2022-09-07T06:21:38.455Z,4.10
2022-09-07T06:24:06.768Z,4.20
2022-09-07T06:26:33.833Z,4.03
2022-09-07T06:29:03.358Z,3.70
2022-09-07T06:31:30.754Z,3.67
2022-09-07T06:33:58.708Z,3.20
2022-09-07T06:36:27.846Z,3.57
2022-09-07T06:38:58.903Z,3.47
2022-09-07T06:44:15.598Z,3.53
2022-09-07T06:49:29.207Z,3.33
2022-09-07T06:51:56.109Z,3.30
2022-09-07T06:57:10.017Z,2.50
2022-09-07T06:59:38.596Z,4.70
2022-09-07T07:02:07.145Z,4.57
2022-09-07T07:04:39.613Z,4.50
2022-09-07T07:07:12.186Z,4.57
2022-09-07T07:09:39.880Z,4.13
2022-09-07T07:12:06.900Z,3.87
2022-09-07T07:14:36.484Z,4.03
2022-09-07T07:17:05.484Z,3.80
2022-09-07T07:19:32.294Z,4.10
2022-09-07T07:22:18.324Z,3.63
2022-09-07T07:24:45.821Z,3.67
2022-09-07T07:27:12.610Z,3.43
2022-09-07T07:29:39.360Z,3.53
2022-09-07T07:32:06.165Z,3.83
2022-09-07T07:34:33.025Z,3.43
2022-09-07T07:36:59.919Z,3.10
2022-09-07T07:42:13.367Z,3.50
2022-09-07T07:44:40.115Z,3.50
2022-09-07T07:47:06.988Z,3.43
2022-09-07T07:49:33.717Z,3.17
2022-09-07T07:54:48.068Z,3.03
2022-09-07T07:57:16.721Z,2.97
2022-09-07T07:59:43.440Z,2.90
2022-09-07T08:02:16.333Z,2.93
2022-09-07T08:04:43.483Z,3.00
2022-09-07T08:07:15.640Z,2.63
2022-09-07T08:09:45.568Z,3.17
2022-09-07T08:12:18.980Z,3.00
2022-09-07T08:14:48.118Z,3.08
2022-09-07T08:17:17.333Z,3.27
2022-09-07T08:19:45.231Z,3.00
2022-09-07T08:22:13.184Z,3.27
2022-09-07T08:24:40.253Z,2.93
2022-09-07T08:27:08.981Z,3.03
2022-09-07T08:29:35.855Z,4.30
2022-09-07T08:32:06.376Z,3.27
2022-09-07T08:34:36.122Z,3.20
2022-09-07T08:37:03.465Z,3.07
2022-09-07T08:39:30.961Z,2.53
2022-09-07T08:42:37.577Z,3.07
2022-09-07T08:45:11.692Z,3.03
2022-09-07T08:47:47.726Z,2.50
2022-09-07T08:50:40.409Z,2.53
2022-09-07T08:53:16.377Z,3.20
2022-09-07T08:55:55.320Z,3.00
2022-09-07T08:58:50.579Z,2.83
2022-09-07T09:01:41.181Z,3.30
2022-09-07T09:04:24.737Z,3.27
2022-09-07T09:07:28.969Z,2.47
2022-09-07T09:10:33.346Z,2.83
2022-09-07T09:13:35.584Z,2.70
2022-09-07T09:16:14.252Z,2.20
2022-09-07T09:18:46.401Z,2.77
2022-09-07T09:21:18.604Z,2.40
2022-09-07T09:23:52.085Z,2.37
2022-09-07T09:26:28.555Z,2.37
2022-09-07T09:28:55.286Z,2.43
2022-09-07T09:31:29.319Z,2.77
2022-09-07T09:34:05.048Z,2.83
2022-09-07T09:36:39.846Z,2.37
2022-09-07T09:39:38.108Z,2.20
2022-09-07T09:42:22.263Z,2.80
2022-09-07T09:44:50.187Z,2.47
2022-09-07T09:47:32.606Z,2.37
2022-09-07T09:50:06.624Z,2.60
2022-09-07T09:52:47.570Z,2.60
2022-09-07T09:55:37.469Z,2.53
2022-09-07T10:01:35.979Z,2.20
2022-09-07T10:04:25.134Z,2.10
2022-09-07T10:07:25.786Z,1.93
2022-09-07T10:10:16.030Z,2.33
2022-09-07T10:12:46.083Z,2.50
2022-09-07T10:15:40.017Z,2.30
2022-09-07T10:18:18.531Z,2.13
2022-09-07T10:20:45.442Z,2.70
2022-09-07T10:23:27.397Z,2.87
2022-09-07T10:25:54.095Z,2.90
2022-09-07T10:28:24.446Z,2.70
2022-09-07T10:31:22.033Z,2.80
2022-09-07T10:34:26.441Z,2.10
2022-09-07T10:37:10.184Z,2.60
2022-09-07T10:39:43.767Z,2.50
2022-09-07T10:42:29.454Z,2.40
2022-09-07T10:45:19.069Z,2.07
2022-09-07T10:48:06.831Z,2.00
2022-09-07T10:50:50.036Z,2.03
2022-09-07T10:57:31.206Z,2.07
2022-09-07T11:00:12.853Z,1.90
2022-09-07T11:03:30.121Z,2.10
2022-09-07T11:06:21.928Z,2.20
2022-09-07T11:09:16.732Z,2.03
2022-09-07T11:12:17.330Z,1.93
2022-09-07T11:15:02.093Z,1.90
2022-09-07T11:17:30.793Z,2.10
2022-09-07T11:20:28.594Z,1.90
2022-09-07T11:23:28.191Z,2.20
2022-09-07T11:26:01.220Z,2.10
2022-09-07T11:31:48.456Z,2.20
2022-09-07T11:34:55.439Z,2.43
2022-09-07T11:37:47.027Z,2.20
2022-09-07T11:40:31.532Z,2.20
2022-09-07T11:43:24.674Z,2.70
2022-09-07T11:46:04.692Z,1.90
2022-09-07T11:48:48.421Z,2.20
2022-09-07T11:51:26.455Z,2.00
2022-09-07T11:54:03.757Z,1.97
2022-09-07T11:56:38.201Z,2.17
2022-09-07T11:59:36.616Z,2.63
2022-09-07T12:03:00.226Z,2.10
2022-09-07T12:06:03.933Z,2.27
2022-09-07T12:09:21.887Z,2.10
2022-09-07T12:12:42.034Z,2.10
2022-09-07T12:15:44.188Z,2.40
2022-09-07T12:18:28.782Z,2.30
2022-09-07T12:20:55.752Z,2.07
2022-09-07T12:23:31.311Z,2.20
2022-09-07T12:26:35.500Z,2.10
2022-09-07T12:29:02.131Z,2.10
2022-09-07T12:32:52.427Z,1.70
2022-09-07T12:34:53.586Z,1.90
2022-09-07T12:37:39.945Z,1.90
2022-09-07T12:40:34.461Z,2.27
2022-09-07T12:43:13.385Z,1.93
2022-09-07T12:45:40.045Z,2.07
2022-09-07T12:48:15.871Z,2.07
2022-09-07T12:51:03.603Z,2.60
2022-09-07T12:53:33.964Z,2.00
2022-09-07T12:56:28.091Z,1.77
2022-09-07T12:59:20.332Z,2.07
2022-09-07T13:02:22.513Z,1.90
2022-09-07T13:05:21.547Z,1.95
2022-09-07T13:08:21.229Z,1.80
2022-09-07T13:10:48.066Z,2.00
2022-09-07T13:13:14.681Z,1.60
2022-09-07T13:16:13.647Z,2.00
2022-09-07T13:18:46.243Z,2.08
2022-09-07T13:21:14.859Z,2.10
2022-09-07T13:24:45.755Z,2.30
2022-09-07T13:27:10.376Z,2.10
2022-09-07T13:29:48.262Z,2.10
2022-09-07T13:35:25.198Z,2.03
2022-09-07T13:38:03.913Z,2.37
2022-09-07T13:40:39.051Z,1.87
2022-09-07T13:43:16.292Z,2.13
2022-09-07T13:45:55.063Z,2.00
2022-09-07T13:49:06.694Z,1.60
2022-09-07T13:51:54.087Z,1.80
2022-09-07T13:55:12.594Z,2.07
2022-09-07T13:57:46.844Z,1.77
2022-09-07T14:00:16.775Z,2.20
2022-09-07T14:02:44.156Z,1.85
2022-09-07T14:05:18.401Z,1.57
2022-09-07T14:07:46.172Z,1.80
2022-09-07T14:10:23.117Z,1.83
2022-09-07T14:13:06.310Z,1.70
2022-09-07T14:15:40.659Z,1.60
2022-09-07T14:18:29.631Z,1.80
2022-09-07T14:20:57.308Z,1.85
2022-09-07T14:23:29.841Z,1.60
2022-09-07T14:26:22.956Z,1.47
2022-09-07T14:28:54.197Z,1.57
2022-09-07T14:31:24.148Z,1.30
2022-09-07T14:34:00.842Z,1.50
2022-09-07T14:36:46.461Z,2.03
2022-09-07T14:39:16.681Z,1.63
2022-09-07T14:41:44.484Z,1.40
2022-09-07T14:44:35.415Z,1.80
2022-09-07T14:47:35.647Z,1.80
2022-09-07T14:50:10.590Z,1.90
2022-09-07T14:55:45.415Z,1.73
2022-09-07T14:58:15.766Z,1.40
2022-09-07T15:03:43.644Z,1.50
2022-09-07T15:07:01.028Z,1.60
2022-09-07T15:08:59.367Z,1.90
2022-09-07T15:11:34.281Z,1.80
2022-09-07T15:14:20.493Z,1.57
2022-09-07T15:19:50.589Z,1.40
2022-09-07T15:22:19.364Z,1.63
2022-09-07T15:24:50.548Z,1.33
2022-09-07T15:27:29.878Z,1.10
2022-09-07T15:29:57.105Z,1.20
2022-09-07T15:32:24.776Z,1.20
2022-09-07T15:34:52.317Z,1.20
2022-09-07T15:40:22.758Z,1.40
2022-09-07T15:43:19.667Z,1.57
2022-09-07T15:45:39.675Z,1.57
2022-09-07T15:48:07.519Z,1.43
2022-09-07T15:50:35.180Z,1.70
2022-09-07T15:53:03.137Z,1.10
2022-09-07T15:55:33.093Z,1.60
2022-09-07T15:58:11.586Z,1.33
2022-09-07T16:00:43.685Z,1.50
2022-09-07T16:03:12.344Z,1.30
2022-09-07T16:05:44.456Z,1.30
2022-09-07T16:08:32.720Z,1.60
2022-09-07T16:11:18.459Z,1.80
2022-09-07T16:13:48.162Z,1.50
2022-09-07T16:16:16.240Z,1.30
2022-09-07T16:18:46.917Z,1.43
2022-09-07T16:21:15.552Z,1.30
2022-09-07T16:23:47.765Z,1.80
2022-09-07T16:26:16.555Z,1.67
2022-09-07T16:28:48.915Z,1.47
2022-09-07T16:31:26.369Z,1.47
2022-09-07T16:33:54.734Z,1.60
2022-09-07T16:36:25.488Z,1.23
2022-09-07T16:38:59.862Z,1.10
2022-09-07T16:41:31.831Z,1.30
2022-09-07T16:43:59.764Z,1.60
2022-09-07T16:46:30.847Z,1.20
2022-09-07T16:48:58.051Z,1.57
2022-09-07T16:51:24.926Z,1.47
2022-09-07T16:53:55.562Z,1.20
2022-09-07T16:56:25.867Z,1.40
2022-09-07T16:59:06.060Z,1.27
2022-09-07T17:01:35.465Z,1.53
2022-09-07T17:04:08.020Z,1.50
2022-09-07T17:06:37.853Z,1.43
2022-09-07T17:09:05.711Z,1.63
2022-09-07T17:11:35.541Z,1.40
2022-09-07T17:14:05.556Z,1.30
2022-09-07T17:16:37.292Z,1.60
2022-09-07T17:21:53.545Z,1.80
2022-09-07T17:24:20.667Z,1.60
2022-09-07T17:26:47.782Z,2.03
2022-09-07T17:29:15.034Z,1.80
2022-09-07T17:34:31.923Z,2.10
2022-09-07T17:37:00.497Z,1.80
2022-09-07T17:39:27.762Z,1.97
2022-09-07T17:41:54.913Z,1.77
2022-09-07T17:44:23.240Z,1.70
2022-09-07T17:46:51.261Z,1.83
2022-09-07T17:49:18.040Z,1.70
2022-09-07T17:51:45.886Z,2.13
2022-09-07T17:54:17.280Z,1.80
2022-09-07T17:56:45.037Z,1.90
2022-09-07T18:01:59.643Z,1.90
2022-09-07T18:04:27.180Z,2.10
2022-09-07T18:06:54.960Z,1.70
2022-09-07T18:09:21.816Z,1.83
2022-09-07T18:11:50.047Z,1.70
2022-09-07T18:14:18.579Z,1.90
2022-09-07T18:16:49.364Z,1.97
2022-09-07T18:19:18.227Z,2.03
2022-09-07T18:21:46.056Z,2.13
2022-09-07T18:24:24.037Z,2.30
2022-09-07T18:26:53.570Z,2.10
2022-09-07T18:29:30.188Z,2.30
2022-09-07T18:32:00.280Z,2.60
2022-09-07T18:34:28.569Z,2.20
2022-09-07T18:36:55.417Z,2.17
2022-09-07T18:39:22.660Z,1.90
2022-09-07T18:41:49.404Z,2.33
2022-09-07T18:47:02.862Z,2.10
2022-09-07T18:49:29.619Z,2.33
2022-09-07T18:54:43.028Z,2.03
2022-09-07T18:57:09.733Z,2.07
2022-09-07T18:59:36.463Z,2.53
2022-09-07T19:02:06.252Z,2.20
2022-09-07T19:07:24.885Z,2.17
2022-09-07T19:09:54.314Z,2.50
2022-09-07T19:12:21.057Z,2.70
2022-09-07T19:14:47.749Z,2.30
2022-09-07T19:17:14.476Z,2.20
2022-09-07T19:19:41.971Z,2.30
2022-09-07T19:22:08.669Z,2.20
2022-09-07T19:24:35.378Z,2.50
2022-09-07T19:27:02.080Z,2.07
2022-09-07T19:29:29.017Z,2.07
2022-09-07T19:32:05.350Z,2.50
2022-09-07T19:34:41.428Z,2.43
2022-09-07T19:37:10.811Z,1.97
2022-09-07T19:39:37.956Z,2.20
2022-09-07T19:42:06.510Z,2.30
2022-09-07T19:44:33.555Z,2.73
2022-09-07T19:47:00.749Z,2.40
2022-09-07T19:49:28.489Z,2.27
2022-09-07T19:51:55.546Z,2.30
2022-09-07T19:54:22.454Z,2.27
2022-09-07T19:56:49.164Z,2.23
2022-09-07T19:59:16.084Z,2.60
2022-09-07T20:01:46.224Z,2.20
2022-09-07T20:04:20.455Z,2.43
2022-09-07T20:06:49.933Z,2.33
2022-09-07T20:09:19.705Z,2.53
2022-09-07T20:11:47.950Z,2.30
2022-09-07T20:14:16.323Z,2.33
2022-09-07T20:16:43.819Z,2.20
2022-09-07T20:19:14.654Z,2.30
2022-09-07T20:21:42.322Z,2.50
2022-09-07T20:24:12.176Z,2.37
2022-09-07T20:26:39.150Z,2.60
2022-09-07T20:29:26.107Z,3.03
2022-09-07T20:31:53.619Z,2.40
2022-09-07T20:34:20.476Z,2.30
2022-09-07T20:36:50.419Z,2.07
2022-09-07T20:39:17.537Z,2.03
2022-09-07T20:41:44.375Z,2.40
2022-09-07T20:44:11.352Z,2.20
2022-09-07T20:46:38.413Z,2.37
2022-09-07T20:49:05.286Z,2.37
2022-09-07T20:51:32.603Z,2.50
2022-09-07T20:53:59.482Z,2.60
2022-09-07T20:56:29.340Z,2.40
2022-09-07T20:59:01.833Z,2.27
2022-09-07T21:01:30.863Z,2.70
2022-09-07T21:04:00.448Z,2.30
2022-09-07T21:06:28.633Z,2.50
2022-09-07T21:08:57.206Z,2.30
2022-09-07T21:11:28.278Z,2.37
2022-09-07T21:14:06.018Z,2.13
2022-09-07T21:16:34.198Z,2.50
2022-09-07T21:19:03.132Z,2.77
2022-09-07T21:21:40.370Z,2.30
2022-09-07T21:24:19.722Z,2.50
2022-09-07T21:26:48.721Z,2.60
2022-09-07T21:29:23.154Z,2.60
2022-09-07T21:31:53.260Z,2.70
2022-09-07T21:34:20.602Z,2.57
2022-09-07T21:36:47.539Z,2.80
2022-09-07T21:39:15.925Z,2.87
2022-09-07T21:41:44.299Z,2.57
2022-09-07T21:44:15.925Z,2.77
2022-09-07T21:46:43.375Z,2.80
2022-09-07T21:49:10.786Z,2.43
2022-09-07T21:51:37.923Z,2.63
2022-09-07T21:54:04.637Z,2.97
2022-09-07T21:56:31.791Z,2.40
2022-09-07T21:59:01.284Z,2.50
2022-09-07T22:01:29.770Z,2.77
2022-09-07T22:04:00.727Z,2.70
2022-09-07T22:06:28.355Z,2.53
2022-09-07T22:08:55.777Z,2.70
2022-09-07T22:11:26.373Z,2.57
2022-09-07T22:14:03.106Z,2.47
2022-09-07T22:16:31.928Z,2.30
2022-09-07T22:18:58.862Z,2.37
2022-09-07T22:21:28.723Z,3.27
2022-09-07T22:23:59.641Z,2.90
2022-09-07T22:26:30.199Z,2.50
2022-09-07T22:28:58.008Z,3.00
2022-09-07T22:31:31.819Z,2.60
2022-09-07T22:34:01.513Z,2.97
2022-09-07T22:36:38.699Z,3.43
2022-09-07T22:39:10.179Z,2.87
2022-09-07T22:41:39.190Z,2.70
2022-09-07T22:44:09.994Z,2.23
2022-09-07T22:46:39.431Z,2.40
2022-09-07T22:49:07.688Z,2.70
2022-09-07T22:51:34.553Z,2.50
2022-09-07T22:54:01.606Z,2.53
2022-09-07T22:56:31.711Z,2.80
2022-09-07T22:59:01.982Z,2.70
2022-09-07T23:01:30.855Z,2.53
2022-09-07T23:03:58.377Z,3.03
2022-09-07T23:06:30.232Z,2.83
2022-09-07T23:09:00.863Z,2.53
2022-09-07T23:11:28.386Z,2.50
2022-09-07T23:13:59.462Z,2.83
2022-09-07T23:16:27.971Z,2.43
2022-09-07T23:18:57.979Z,2.50
2022-09-07T23:21:25.576Z,3.47
2022-09-07T23:23:55.597Z,2.73
2022-09-07T23:26:24.598Z,2.90
2022-09-07T23:28:54.200Z,2.50
2022-09-07T23:31:22.735Z,2.57
2022-09-07T23:33:50.176Z,2.40
2022-09-07T23:36:18.311Z,2.37
2022-09-07T23:38:46.379Z,2.90
2022-09-07T23:41:14.101Z,2.47
2022-09-07T23:43:41.772Z,2.40
2022-09-07T23:46:10.544Z,2.80
2022-09-07T23:48:37.437Z,3.20
2022-09-07T23:51:04.566Z,3.10
2022-09-07T23:53:31.549Z,3.37
2022-09-07T23:55:58.582Z,3.00
2022-09-07T23:58:25.382Z,3.27
